Time;durP1;ratioP1;P1;durP2;ratioP2;P2;SDS_P1;SDS_P2;PMS_P1;PMS_P2;Temp;Humidity;BMP_temperature;BMP_pressure;BME280_temperature;BME280_humidity;BME280_pressure;Samples;Min_cycle;Max_cycle;Signal;HPM_P1;HPM_P2
2022/08/13 00:02:16;;;;;;;2.30;1.87;;;;;;;19.01;50.24;100428.84;5071599;28;20060;-59
2022/08/13 00:04:47;;;;;;;3.00;1.80;;;;;;;18.97;50.20;100431.59;5072373;28;20477;-58
2022/08/13 00:07:15;;;;;;;4.40;1.88;;;;;;;18.93;50.34;100427.06;5071687;28;20047;-58
2022/08/13 00:09:44;;;;;;;4.63;2.03;;;;;;;18.89;50.22;100431.84;5076936;28;20407;-58
2022/08/13 00:15:08;;;;;;;4.30;1.83;;;;;;;18.78;50.69;100434.41;5076472;28;20071;-59
2022/08/13 00:17:37;;;;;;;2.90;1.80;;;;;;;18.74;50.78;100430.69;5084340;28;20397;-58
2022/08/13 00:20:07;;;;;;;4.88;2.22;;;;;;;18.67;51.08;100437.81;5071958;28;20052;-59
2022/08/13 00:22:36;;;;;;;7.00;1.95;;;;;;;18.61;51.34;100430.84;5070255;28;20503;-59
2022/08/13 00:25:07;;;;;;;5.97;1.75;;;;;;;18.57;51.79;100431.94;5089240;28;20427;-58
2022/08/13 00:27:35;;;;;;;4.40;2.00;;;;;;;18.55;51.85;100423.84;5089862;28;20048;-59
2022/08/13 00:30:05;;;;;;;3.40;1.98;;;;;;;18.52;51.88;100421.78;5071454;28;20071;-58
2022/08/13 00:32:33;;;;;;;3.67;1.90;;;;;;;18.43;51.82;100424.78;5071931;28;20063;-58
2022/08/13 00:35:01;;;;;;;4.22;1.80;;;;;;;18.40;51.91;100427.56;5071480;28;20064;-58
2022/08/13 00:37:29;;;;;;;2.97;2.00;;;;;;;18.38;51.91;100422.28;5070770;28;20063;-58
2022/08/13 00:39:58;;;;;;;5.57;2.05;;;;;;;18.40;51.51;100431.19;5072738;28;20483;-59
2022/08/13 00:42:27;;;;;;;3.33;2.17;;;;;;;18.40;51.62;100417.06;5071913;28;20052;-59
2022/08/13 00:44:55;;;;;;;4.15;1.95;;;;;;;18.38;51.57;100415.81;5072803;28;20056;-59
2022/08/13 00:50:12;;;;;;;3.63;1.95;;;;;;;18.33;51.33;100416.09;5075532;28;20060;-59
2022/08/13 00:52:41;;;;;;;4.78;1.83;;;;;;;18.31;51.29;100413.66;5087298;28;20048;-59
2022/08/13 00:55:16;;;;;;;2.83;1.73;;;;;;;18.28;51.32;100403.09;5079513;28;20048;-59
2022/08/13 00:57:44;;;;;;;3.95;2.33;;;;;;;18.24;51.44;100413.47;5075546;28;20499;-58
2022/08/13 01:00:15;;;;;;;3.75;1.83;;;;;;;18.12;51.69;100410.78;5074842;28;20067;-59
2022/08/13 01:02:44;;;;;;;3.30;1.80;;;;;;;18.08;51.67;100410.72;5075278;28;20048;-58
2022/08/13 01:05:12;;;;;;;3.40;1.80;;;;;;;18.06;51.59;100407.44;5074909;28;20052;-59
2022/08/13 01:07:41;;;;;;;3.60;1.80;;;;;;;18.08;51.62;100402.25;5085367;28;20075;-58
2022/08/13 01:10:11;;;;;;;4.07;2.00;;;;;;;18.04;51.90;100409.81;5083662;28;20056;-59
2022/08/13 01:12:40;;;;;;;3.33;1.65;;;;;;;18.02;51.83;100409.38;5075236;28;20052;-59
2022/08/13 01:15:12;;;;;;;3.60;1.80;;;;;;;17.99;52.03;100404.44;5074500;28;20053;-58
2022/08/13 01:17:41;;;;;;;4.00;1.70;;;;;;;17.95;52.38;100406.38;5095607;28;20048;-59
2022/08/13 01:20:16;;;;;;;3.20;1.60;;;;;;;17.97;52.11;100410.44;5086070;28;20048;-59
2022/08/13 01:22:46;;;;;;;3.40;2.03;;;;;;;17.91;52.33;100411.94;5075097;28;20393;-59
2022/08/13 01:25:13;;;;;;;;;;;;;;;17.85;52.45;100410.59;5075252;28;20056;-59
2022/08/13 01:27:41;;;;;;;2.72;1.42;;;;;;;17.82;52.29;100406.47;5074863;28;19920;-58
2022/08/13 01:30:14;;;;;;;5.47;1.88;;;;;;;17.85;52.71;100402.94;5078682;28;20044;-59
2022/08/13 01:32:42;;;;;;;3.10;1.80;;;;;;;17.87;52.31;100402.56;5074770;28;20051;-58
2022/08/13 01:35:09;;;;;;;2.78;1.70;;;;;;;17.83;52.45;100398.84;5074105;28;20058;-58
2022/08/13 01:37:38;;;;;;;2.33;1.48;;;;;;;17.79;52.28;100406.38;5081664;28;20071;-59
2022/08/13 01:40:09;;;;;;;2.08;1.50;;;;;;;17.72;52.67;100403.38;5074279;28;20048;-59
2022/08/13 01:42:39;;;;;;;3.42;1.70;;;;;;;17.69;52.93;100399.28;5074871;28;20362;-59
2022/08/13 01:45:08;;;;;;;2.30;1.55;;;;;;;17.71;52.57;100408.19;5075628;28;20077;-58
2022/08/13 01:50:33;;;;;;;4.20;1.85;;;;;;;17.63;52.78;100407.19;5080155;28;20446;-58
2022/08/13 01:53:03;;;;;;;3.42;1.67;;;;;;;17.62;52.94;100404.75;5074341;28;20063;-59
2022/08/13 01:55:38;;;;;;;3.67;1.60;;;;;;;17.59;52.93;100402.66;5074149;28;20059;-59
2022/08/13 01:58:08;;;;;;;2.83;1.40;;;;;;;17.57;52.90;100399.38;5073510;28;20040;-59
2022/08/13 02:00:36;;;;;;;;;;;;;;;17.49;52.80;100394.75;5084122;28;20056;-59
2022/08/13 02:03:05;;;;;;;5.53;1.58;;;;;;;17.47;53.04;100399.91;5074141;28;19949;-59
2022/08/13 02:05:33;;;;;;;;;;;;;;;17.37;53.20;100399.28;5074611;28;20052;-58
2022/08/13 02:08:01;;;;;;;2.75;1.63;;;;;;;17.35;53.13;100396.03;5073652;28;19927;-59
2022/08/13 02:10:29;;;;;;;2.78;1.40;;;;;;;17.34;53.29;100399.19;5073991;28;20060;-58
2022/08/13 02:12:58;;;;;;;2.80;1.70;;;;;;;17.35;53.21;100401.66;5071710;28;20405;-59
2022/08/13 02:15:25;;;;;;;3.83;1.50;;;;;;;17.31;53.50;100400.72;5075073;28;20056;-59
2022/08/13 02:17:53;;;;;;;3.65;1.60;;;;;;;17.30;53.56;100404.72;5078508;28;20374;-58
2022/08/13 02:20:20;;;;;;;2.80;1.50;;;;;;;17.28;53.61;100401.44;5073938;28;20070;-59
2022/08/13 02:22:48;;;;;;;2.90;1.70;;;;;;;17.23;54.13;100405.34;5073868;28;20057;-58
2022/08/13 02:25:20;;;;;;;3.28;1.90;;;;;;;17.25;54.53;100414.25;5073580;28;20048;-58
2022/08/13 02:27:48;;;;;;;2.20;1.70;;;;;;;17.21;54.53;100416.16;5073397;28;20151;-59
2022/08/13 02:30:17;;;;;;;2.50;1.70;;;;;;;17.14;54.83;100415.97;5076022;28;20105;-59
2022/08/13 02:32:45;;;;;;;3.42;1.65;;;;;;;17.12;54.69;100411.88;5083402;28;20064;-58
2022/08/13 02:35:15;;;;;;;2.72;1.70;;;;;;;17.04;54.97;100411.66;5073970;28;20493;-63
2022/08/13 02:37:42;;;;;;;3.67;1.63;;;;;;;17.07;54.68;100417.75;5073551;28;20053;-63
2022/08/13 02:41:38;;;;;;;3.72;1.88;;;;;;;17.03;54.54;100415.69;5073108;28;20052;-63
2022/08/13 02:42:59;;;;;;;2.30;1.45;;;;;;;16.97;54.92;100416.31;5073468;28;20064;-63
2022/08/13 02:45:28;;;;;;;4.20;1.85;;;;;;;16.89;54.93;100414.47;5080561;28;20067;-63
2022/08/13 02:47:57;;;;;;;2.95;2.10;;;;;;;16.88;54.73;100422.06;5085808;28;20055;-63
2022/08/13 02:50:26;;;;;;;5.18;2.08;;;;;;;16.84;54.96;100410.72;5073385;28;20052;-63
2022/08/13 02:52:53;;;;;;;3.38;1.75;;;;;;;16.84;55.08;100418.34;5073119;28;20071;-63
2022/08/13 02:55:22;;;;;;;3.55;1.65;;;;;;;16.83;54.81;100419.53;5073034;28;20052;-63
2022/08/13 02:57:51;;;;;;;2.42;1.77;;;;;;;16.78;54.93;100414.13;5073107;28;20060;-63
2022/08/13 03:00:20;;;;;;;3.47;1.80;;;;;;;16.80;55.08;100421.06;5087685;28;20047;-63
2022/08/13 03:02:49;;;;;;;3.85;1.98;;;;;;;16.79;55.08;100418.56;5090773;28;20059;-63
2022/08/13 03:05:19;;;;;;;4.35;1.80;;;;;;;16.74;55.50;100416.84;5072608;28;20056;-63
2022/08/13 03:07:47;;;;;;;4.22;2.03;;;;;;;16.74;55.41;100416.84;5072358;28;20052;-63
2022/08/13 03:10:18;;;;;;;2.30;1.92;;;;;;;16.71;55.46;100422.34;5072910;28;20056;-63
2022/08/13 03:12:48;;;;;;;3.47;2.22;;;;;;;16.71;55.47;100425.16;5071605;28;20135;-63
2022/08/13 03:15:19;;;;;;;4.25;2.00;;;;;;;16.70;55.63;100412.28;5080789;28;20059;-63
2022/08/13 03:17:46;;;;;;;3.22;1.85;;;;;;;16.68;56.12;100421.06;5092714;28;20277;-63
2022/08/13 03:20:16;;;;;;;2.72;1.85;;;;;;;16.67;56.24;100429.88;5074621;28;20048;-63
2022/08/13 03:22:51;;;;;;;2.85;1.90;;;;;;;16.63;56.51;100433.41;5072808;28;20056;-63
2022/08/13 03:25:20;;;;;;;2.90;1.63;;;;;;;16.61;56.51;100432.13;5071936;28;20048;-63
2022/08/13 03:27:48;;;;;;;4.07;1.85;;;;;;;16.57;56.69;100426.38;5080053;28;20507;-63
2022/08/13 03:30:17;;;;;;;2.70;1.98;;;;;;;16.52;56.84;100426.63;5076792;28;20562;-63
2022/08/13 03:32:45;;;;;;;;;;;;;;;16.40;56.80;100427.50;5072850;28;20048;-63
2022/08/13 03:35:15;;;;;;;4.53;2.15;;;;;;;16.43;56.66;100423.16;5072036;28;19920;-63
2022/08/13 03:37:45;;;;;;;2.92;1.90;;;;;;;16.41;56.73;100415.06;5072369;28;20515;-63
2022/08/13 03:40:14;;;;;;;3.10;1.98;;;;;;;16.41;56.62;100414.25;5071639;28;20408;-63
2022/08/13 03:42:42;;;;;;;2.28;2.08;;;;;;;16.38;56.70;100414.97;5059631;28;20504;-63
2022/08/13 03:45:11;;;;;;;2.70;2.33;;;;;;;16.37;56.95;100411.31;5062012;28;20488;-63
2022/08/13 03:47:39;;;;;;;2.67;2.00;;;;;;;16.35;57.24;100416.47;5072377;28;20488;-63
2022/08/13 03:50:09;;;;;;;3.60;2.22;;;;;;;16.32;57.51;100422.00;5071863;28;20048;-63
2022/08/13 03:52:38;;;;;;;3.67;2.10;;;;;;;16.29;57.29;100417.09;5072181;28;20048;-63
2022/08/13 03:55:08;;;;;;;2.70;1.98;;;;;;;16.28;57.52;100421.09;5071585;28;20048;-63
2022/08/13 03:57:40;;;;;;;2.60;2.03;;;;;;;16.25;57.75;100425.41;5092285;28;20506;-63
2022/08/13 04:00:11;;;;;;;4.95;2.00;;;;;;;16.22;57.68;100412.06;5086117;28;20048;-63
2022/08/13 04:02:40;;;;;;;3.03;2.00;;;;;;;16.21;57.77;100424.47;5072452;28;20063;-64
2022/08/13 04:05:11;;;;;;;4.15;2.08;;;;;;;16.21;57.73;100421.66;5071569;28;20075;-62
2022/08/13 04:07:40;;;;;;;3.17;2.10;;;;;;;16.18;57.56;100419.56;5071860;28;20496;-64
2022/08/13 04:10:08;;;;;;;2.55;2.08;;;;;;;16.14;57.73;100425.06;5070559;28;20056;-62
2022/08/13 04:12:37;;;;;;;2.40;2.00;;;;;;;16.12;57.67;100424.59;5072389;28;20052;-64
2022/08/13 04:15:06;;;;;;;2.45;2.22;;;;;;;16.12;57.63;100424.59;5071864;28;20060;-62
2022/08/13 04:17:36;;;;;;;2.40;2.20;;;;;;;16.11;57.52;100417.34;5072029;28;20075;-63
2022/08/13 04:20:04;;;;;;;;;;;;;;;16.07;57.70;100415.63;5072257;28;20060;-63
2022/08/13 04:22:31;;;;;;;3.08;2.05;;;;;;;16.10;57.55;100421.31;5071511;28;19951;-63
2022/08/13 04:25:04;;;;;;;3.58;2.55;;;;;;;16.04;57.53;100422.72;5084030;28;20048;-63
2022/08/13 04:27:32;;;;;;;2.88;2.38;;;;;;;16.03;57.69;100416.31;5072786;28;20508;-63
2022/08/13 04:30:00;;;;;;;6.40;3.95;;;;;;;15.97;57.79;100417.72;5071895;28;20052;-63
2022/08/13 04:32:27;;;;;;;6.30;3.00;;;;;;;16.00;58.61;100421.81;5070375;28;20052;-63
2022/08/13 04:34:55;;;;;;;4.63;2.42;;;;;;;16.06;58.07;100423.19;5072128;28;20087;-63
2022/08/13 04:37:24;;;;;;;3.38;2.10;;;;;;;16.10;58.24;100418.50;5071380;28;20078;-63
2022/08/13 04:39:52;;;;;;;3.15;2.08;;;;;;;16.14;58.29;100415.81;5083925;28;20048;-63
2022/08/13 04:42:21;;;;;;;3.40;2.17;;;;;;;16.21;57.76;100416.88;5078702;28;20057;-63
2022/08/13 04:44:48;;;;;;;2.95;2.13;;;;;;;16.26;57.77;100415.00;5071905;28;20052;-63
2022/08/13 04:47:17;;;;;;;2.97;2.20;;;;;;;16.32;57.60;100422.00;5074392;28;20060;-63
2022/08/13 04:49:48;;;;;;;4.47;2.05;;;;;;;16.37;57.71;100422.56;5071563;28;20049;-63
2022/08/13 04:52:15;;;;;;;4.97;2.45;;;;;;;16.42;57.86;100427.13;5068430;28;20387;-62
2022/08/13 04:54:43;;;;;;;4.25;2.47;;;;;;;16.47;57.64;100423.25;5051606;28;20057;-63
2022/08/13 04:57:10;;;;;;;3.97;2.42;;;;;;;16.54;57.68;100417.84;5057983;28;20059;-61
2022/08/13 04:59:39;;;;;;;5.47;2.58;;;;;;;16.59;57.29;100429.66;5071312;28;20048;-62
2022/08/13 05:02:09;;;;;;;4.72;2.35;;;;;;;16.69;57.26;100430.31;5071452;28;20119;-62
2022/08/13 05:04:37;;;;;;;5.20;2.25;;;;;;;16.75;57.37;100426.91;5071407;28;20063;-62
2022/08/13 05:07:04;;;;;;;3.67;2.10;;;;;;;16.78;57.40;100431.81;5069074;28;20048;-60
2022/08/13 05:09:31;;;;;;;2.95;1.98;;;;;;;16.85;56.96;100428.41;5077129;28;20062;-58
2022/08/13 05:11:59;;;;;;;4.97;2.47;;;;;;;16.90;56.98;100432.97;5090393;28;20055;-58
2022/08/13 05:14:26;;;;;;;5.13;2.25;;;;;;;16.93;56.67;100438.72;5071001;28;20056;-58
2022/08/13 05:16:55;;;;;;;4.05;2.42;;;;;;;16.98;56.36;100432.00;5071742;28;20477;-58
2022/08/13 05:19:22;;;;;;;4.22;2.55;;;;;;;17.03;56.47;100432.56;5071536;28;20393;-63
2022/08/13 05:21:49;;;;;;;4.15;2.63;;;;;;;17.08;56.52;100427.84;5075490;28;20059;-63
2022/08/13 05:24:17;;;;;;;4.35;2.67;;;;;;;17.11;56.38;100439.19;5074013;28;20053;-62
2022/08/13 05:26:44;;;;;;;3.97;2.55;;;;;;;17.17;56.69;100439.75;5070994;28;20418;-63
2022/08/13 05:29:13;;;;;;;4.93;2.72;;;;;;;17.26;56.46;100437.63;5071006;28;20052;-63
2022/08/13 05:31:42;;;;;;;4.03;2.67;;;;;;;17.34;55.99;100442.22;5071713;28;20052;-63
2022/08/13 05:34:10;;;;;;;4.15;2.67;;;;;;;17.42;55.97;100441.25;5074613;28;20063;-63
2022/08/13 05:36:39;;;;;;;5.70;2.45;;;;;;;17.53;56.39;100441.53;5083653;28;20055;-63
2022/08/13 05:39:06;;;;;;;3.55;2.17;;;;;;;17.66;56.29;100442.28;5082957;28;20071;-62
2022/08/13 05:41:34;;;;;;;2.53;1.98;;;;;;;17.73;56.08;100445.25;5074337;28;20052;-63
2022/08/13 05:44:01;;;;;;;3.13;2.33;;;;;;;17.81;55.91;100444.25;5074442;28;20079;-63
2022/08/13 05:46:28;;;;;;;3.30;2.10;;;;;;;17.93;55.66;100453.81;5074422;28;20052;-63
2022/08/13 05:48:58;;;;;;;4.32;2.47;;;;;;;17.99;55.03;100449.53;5073649;28;20049;-62
2022/08/13 05:51:31;;;;;;;4.65;2.83;;;;;;;18.02;55.16;100448.81;5091533;28;20048;-63
2022/08/13 05:53:59;;;;;;;6.35;3.00;;;;;;;18.15;54.95;100444.69;5085845;28;20049;-63
2022/08/13 05:56:29;;;;;;;4.70;3.22;;;;;;;18.24;54.68;100442.50;5073697;28;20048;-63
2022/08/13 05:58:56;;;;;;;4.20;2.50;;;;;;;18.32;54.56;100440.66;5073965;28;20059;-61
2022/08/13 06:04:11;;;;;;;4.28;2.67;;;;;;;18.58;53.71;100440.03;5048559;28;20048;-63
2022/08/13 06:06:40;;;;;;;5.75;3.40;;;;;;;18.67;53.41;100446.28;5081456;28;20162;-63
2022/08/13 06:09:10;;;;;;;5.70;3.05;;;;;;;18.79;53.38;100438.88;5090966;28;20067;-58
2022/08/13 06:11:40;;;;;;;;;;;;;;;18.83;53.17;100445.41;5074414;28;20053;-58
2022/08/13 06:14:08;;;;;;;5.35;3.13;;;;;;;18.92;52.96;100445.19;5073846;28;19946;-58
2022/08/13 06:16:37;;;;;;;4.95;2.72;;;;;;;19.04;52.60;100450.69;5073349;28;20064;-59
2022/08/13 06:19:06;;;;;;;3.60;2.40;;;;;;;19.13;52.52;100444.78;5074133;28;20404;-58
2022/08/13 06:21:34;;;;;;;6.90;3.20;;;;;;;19.22;52.52;100449.03;5077766;28;20059;-59
2022/08/13 06:24:05;;;;;;;3.90;2.88;;;;;;;19.30;52.31;100447.16;5093780;28;20052;-58
2022/08/13 06:26:32;;;;;;;3.75;2.88;;;;;;;19.39;52.20;100446.91;5073834;28;20059;-58
2022/08/13 06:29:01;;;;;;;5.63;2.90;;;;;;;19.53;52.20;100444.34;5073270;28;20405;-60
2022/08/13 06:31:31;;;;;;;3.78;2.40;;;;;;;19.58;52.32;100446.06;5073329;28;20063;-58
2022/08/13 06:33:58;;;;;;;4.70;2.78;;;;;;;19.66;52.03;100453.47;5076002;28;20051;-58
2022/08/13 06:36:29;;;;;;;4.97;2.80;;;;;;;19.75;52.04;100450.41;5077583;28;20052;-59
2022/08/13 06:39:01;;;;;;;3.85;2.60;;;;;;;19.82;51.94;100451.34;5072327;28;20190;-59
2022/08/13 06:41:31;;;;;;;4.10;2.70;;;;;;;19.93;51.78;100451.53;5072473;28;20123;-58
2022/08/13 06:43:59;;;;;;;3.70;2.45;;;;;;;20.04;51.73;100446.03;5071520;28;20436;-58
2022/08/13 06:46:28;;;;;;;4.03;2.50;;;;;;;20.14;51.71;100447.38;5071116;28;20366;-58
2022/08/13 06:48:59;;;;;;;;;;;;;;;20.20;51.24;100451.53;5073261;28;20453;-59
2022/08/13 06:51:27;;;;;;;4.63;2.50;;;;;;;20.31;50.89;100452.53;5072038;28;19921;-59
2022/08/13 06:53:55;;;;;;;4.15;2.70;;;;;;;20.44;50.46;100453.09;5072205;28;20052;-58
2022/08/13 06:56:24;;;;;;;5.43;2.60;;;;;;;20.58;50.62;100455.34;5066036;28;20068;-59
2022/08/13 06:58:55;;;;;;;4.38;2.55;;;;;;;20.70;50.18;100460.75;5072647;28;20063;-59
2022/08/13 07:01:24;;;;;;;5.18;2.50;;;;;;;20.84;49.90;100460.16;5070396;28;20423;-59
2022/08/13 07:03:53;;;;;;;3.70;2.45;;;;;;;20.98;50.35;100454.66;5072140;28;20499;-59
2022/08/13 07:06:26;;;;;;;4.40;2.60;;;;;;;21.15;49.90;100453.25;5071279;28;20075;-58
2022/08/13 07:08:55;;;;;;;4.30;2.28;;;;;;;21.28;49.54;100456.63;5067539;28;20394;-58
2022/08/13 07:11:23;;;;;;;3.60;2.17;;;;;;;21.42;49.74;100451.13;5072745;28;20052;-59
2022/08/13 07:13:56;;;;;;;4.13;2.22;;;;;;;21.57;49.61;100445.63;5093010;28;20052;-58
2022/08/13 07:16:25;;;;;;;4.22;2.38;;;;;;;21.75;49.52;100451.44;5083566;28;20385;-59
2022/08/13 07:18:53;;;;;;;2.95;2.10;;;;;;;21.87;48.98;100449.09;5070119;28;20057;-58
2022/08/13 07:21:22;;;;;;;4.45;2.47;;;;;;;22.23;48.56;100431.59;5071970;28;20055;-59
2022/08/13 07:23:51;;;;;;;2.80;1.92;;;;;;;22.94;46.60;100439.66;5069881;28;20051;-58
2022/08/13 07:26:19;;;;;;;3.60;2.30;;;;;;;23.63;45.28;100441.47;5079612;28;20060;-59
2022/08/13 07:28:49;;;;;;;4.93;1.95;;;;;;;24.36;43.38;100439.41;5072119;28;20059;-59
2022/08/13 07:31:20;;;;;;;3.38;2.10;;;;;;;25.15;41.06;100439.16;5062147;28;20044;-58
2022/08/13 07:33:51;;;;;;;2.55;1.83;;;;;;;25.93;39.48;100432.13;5071588;28;20060;-58
2022/08/13 07:36:20;;;;;;;2.83;1.95;;;;;;;26.71;37.95;100430.56;5071761;28;20063;-63
2022/08/13 07:38:49;;;;;;;4.18;2.45;;;;;;;27.54;35.85;100433.09;5073440;28;20055;-62
2022/08/13 07:41:17;;;;;;;3.92;1.85;;;;;;;28.37;34.64;100428.03;5069200;28;20485;-62
2022/08/13 07:43:46;;;;;;;2.53;1.48;;;;;;;29.14;33.90;100424.84;5067679;28;20068;-61
2022/08/13 07:46:17;;;;;;;2.35;1.77;;;;;;;30.03;31.86;100428.91;5069634;28;20099;-63
2022/08/13 07:48:51;;;;;;;3.00;1.50;;;;;;;30.94;30.04;100428.88;5069968;28;20056;-62
2022/08/13 07:51:20;;;;;;;2.67;1.60;;;;;;;31.87;28.58;100425.13;5069558;28;20051;-59
2022/08/13 07:53:48;;;;;;;2.90;1.40;;;;;;;32.81;27.28;100428.44;5063668;28;20052;-59
2022/08/13 07:56:21;;;;;;;2.90;1.90;;;;;;;33.74;26.71;100427.66;5068243;28;20087;-58
2022/08/13 07:58:48;;;;;;;7.45;1.70;;;;;;;34.70;25.64;100422.69;5070733;28;20517;-59
2022/08/13 08:01:18;;;;;;;2.88;1.50;;;;;;;35.56;24.02;100423.59;5062526;28;20079;-58
2022/08/13 08:03:48;;;;;;;2.88;1.90;;;;;;;36.57;22.82;100433.75;5069163;28;20056;-59
2022/08/13 08:06:18;;;;;;;3.47;1.85;;;;;;;37.43;21.69;100434.84;5058934;28;20061;-59
2022/08/13 08:08:45;;;;;;;2.92;1.33;;;;;;;38.36;21.21;100426.44;5078202;28;20056;-59
2022/08/13 08:12:30;;;;;;;2.70;1.90;;;;;;;39.29;20.38;100413.94;5069716;28;20040;-58
2022/08/13 08:14:02;;;;;;;3.25;1.92;;;;;;;39.97;19.64;100414.44;5069465;28;20052;-59
2022/08/13 08:16:30;;;;;;;;;;;;;;;40.64;18.78;100424.81;5068769;28;20052;-58
2022/08/13 08:19:00;;;;;;;3.72;1.70;;;;;;;41.36;17.88;100411.63;5061513;28;19921;-58
2022/08/13 08:21:29;;;;;;;3.10;1.92;;;;;;;41.90;17.46;100417.16;5068295;28;20059;-59
2022/08/13 08:23:59;;;;;;;3.05;1.90;;;;;;;42.43;16.96;100417.25;5069720;28;20045;-59
2022/08/13 08:26:28;;;;;;;3.92;1.92;;;;;;;42.94;16.11;100414.03;5070243;28;20048;-59
2022/08/13 08:28:56;;;;;;;3.90;1.85;;;;;;;43.31;15.18;100407.63;5068976;28;20408;-59
2022/08/13 08:31:24;;;;;;;4.90;1.65;;;;;;;44.12;15.08;100391.56;5069406;28;20151;-59
2022/08/13 08:33:54;;;;;;;5.95;1.80;;;;;;;44.52;14.77;100403.59;5067510;28;20057;-58
2022/08/13 08:36:22;;;;;;;5.38;2.58;;;;;;;45.07;13.98;100403.31;5071229;28;20059;-58
2022/08/13 08:44:24;;;;;;;3.08;1.98;;;;;;;46.77;12.45;100395.69;5070602;28;20056;-58
2022/08/13 08:46:56;;;;;;;3.80;3.28;;;;;;;47.07;12.16;100398.16;5069634;28;20440;-58
2022/08/13 08:49:25;;;;;;;3.85;1.90;;;;;;;47.88;11.41;100396.31;5070502;28;20044;-59
2022/08/13 08:51:54;;;;;;;4.32;2.33;;;;;;;48.37;11.17;100388.72;5070104;28;20049;-58
2022/08/13 08:54:23;;;;;;;3.65;3.45;;;;;;;48.73;10.57;100384.91;5066855;28;20067;-58
2022/08/13 08:56:55;;;;;;;5.05;2.97;;;;;;;49.23;10.61;100390.50;5065774;28;20053;-58
2022/08/13 08:59:24;;;;;;;4.70;2.28;;;;;;;49.95;10.48;100384.13;5074409;28;20064;-59
2022/08/13 09:01:52;;;;;;;3.50;2.63;;;;;;;50.49;9.82;100383.97;5069648;28;20511;-59
2022/08/13 09:04:20;;;;;;;3.05;2.83;;;;;;;51.35;8.60;100388.72;5069655;28;20061;-59
2022/08/13 09:06:51;;;;;;;3.72;3.42;;;;;;;51.26;8.07;100382.66;5072259;28;20048;-59
2022/08/13 09:09:21;;;;;;;4.72;3.97;;;;;;;49.92;8.81;100381.56;5073151;28;20056;-59
2022/08/13 09:11:50;;;;;;;3.78;3.47;;;;;;;49.09;8.95;100384.78;5075875;28;20052;-58
2022/08/13 09:14:18;;;;;;;4.10;3.80;;;;;;;48.74;9.07;100372.50;5073773;28;20048;-59
2022/08/13 09:16:46;;;;;;;3.85;3.65;;;;;;;46.62;9.98;100372.72;5071160;28;20061;-59
2022/08/13 09:19:14;;;;;;;3.05;2.33;;;;;;;46.80;9.83;100370.19;5068908;28;20055;-59
2022/08/13 09:21:45;;;;;;;2.35;1.92;;;;;;;47.33;9.87;100370.69;5062130;28;20045;-58
2022/08/13 09:24:15;;;;;;;2.85;2.38;;;;;;;47.72;9.78;100368.06;5066465;28;20049;-62
2022/08/13 09:26:47;;;;;;;3.88;3.25;;;;;;;46.90;9.63;100371.28;5065792;28;20064;-62
2022/08/13 09:29:18;;;;;;;3.38;3.10;;;;;;;46.98;9.19;100375.88;5080672;28;20044;-62
2022/08/13 09:31:48;;;;;;;2.90;2.65;;;;;;;47.26;8.92;100371.44;5063938;28;20052;-62
2022/08/13 09:34:16;;;;;;;2.72;2.53;;;;;;;47.06;9.17;100367.09;5053536;28;20045;-62
2022/08/13 09:36:45;;;;;;;4.22;3.42;;;;;;;46.42;9.82;100373.47;5065577;28;20405;-61
2022/08/13 09:39:25;;;;;;;8.52;3.50;;;;;;;45.82;9.94;100364.00;5060117;28;20508;-61
2022/08/13 09:41:56;;;;;;;4.40;2.95;;;;;;;45.10;9.85;100366.94;5069607;28;20052;-61
2022/08/13 09:44:25;;;;;;;3.25;3.05;;;;;;;46.50;9.91;100356.69;5072848;28;20052;-62
2022/08/13 09:46:53;;;;;;;2.08;1.98;;;;;;;46.92;9.78;100353.81;5074190;28;20052;-61
2022/08/13 09:49:20;;;;;;;;;;;;;;;46.25;10.25;100351.06;5073557;28;20049;-62
2022/08/13 09:51:47;;;;;;;3.10;2.25;;;;;;;48.47;9.31;100345.41;5071167;28;19920;-61
2022/08/13 09:54:16;;;;;;;;;;;;;;;47.14;9.66;100350.25;5068997;28;20487;-61
2022/08/13 09:56:47;;;;;;;2.75;1.95;;;;;;;47.90;9.85;100337.47;5067843;28;19920;-61
2022/08/13 09:59:15;;;;;;;3.40;3.10;;;;;;;49.22;8.56;100335.66;5069315;28;20048;-62
2022/08/13 10:01:43;;;;;;;4.30;2.88;;;;;;;49.07;8.94;100342.38;5071148;28;20063;-62
2022/08/13 10:04:11;;;;;;;2.75;2.55;;;;;;;50.69;8.07;100328.66;5052615;28;20056;-62
2022/08/13 10:06:41;;;;;;;3.80;3.60;;;;;;;49.89;7.95;100336.16;5065236;28;20056;-61
2022/08/13 10:09:08;;;;;;;4.05;2.80;;;;;;;49.01;8.49;100333.69;5066319;28;20048;-62
2022/08/13 10:11:36;;;;;;;3.90;3.47;;;;;;;49.30;8.02;100334.25;5062757;28;20048;-61
2022/08/13 10:14:03;;;;;;;3.38;3.15;;;;;;;49.85;7.65;100323.16;5069090;28;20045;-61
2022/08/13 10:16:33;;;;;;;4.10;3.80;;;;;;;48.73;8.23;100329.50;5064418;28;20052;-61
2022/08/13 10:19:02;;;;;;;4.30;3.15;;;;;;;48.77;8.03;100329.13;5071609;28;20489;-61
2022/08/13 10:21:30;;;;;;;3.72;3.28;;;;;;;49.23;8.31;100319.47;5054773;28;20049;-62
2022/08/13 10:23:58;;;;;;;3.53;2.50;;;;;;;49.95;8.41;100310.06;5075245;28;20068;-64
2022/08/13 10:26:25;;;;;;;3.88;3.50;;;;;;;50.17;7.58;100319.47;5053350;28;20048;-63
2022/08/13 10:28:53;;;;;;;4.00;3.80;;;;;;;49.09;8.43;100319.69;5071526;28;20049;-63
2022/08/13 10:31:27;;;;;;;2.72;2.40;;;;;;;49.25;8.71;100316.72;5057107;28;20292;-63
2022/08/13 10:33:58;;;;;;;5.82;3.33;;;;;;;51.01;7.67;100314.41;5065797;28;20052;-63
2022/08/13 10:36:26;;;;;;;2.80;2.60;;;;;;;52.00;7.22;100305.88;5060459;28;20068;-63
2022/08/13 10:38:53;;;;;;;3.33;3.03;;;;;;;53.10;6.68;100302.28;5068097;28;20055;-63
2022/08/13 10:41:24;;;;;;;4.53;4.13;;;;;;;52.42;6.42;100307.88;5072372;28;20053;-63
2022/08/13 10:43:56;;;;;;;4.43;4.03;;;;;;;51.14;7.33;100300.06;5077866;28;20055;-63
2022/08/13 10:46:25;;;;;;;3.28;3.08;;;;;;;51.19;7.43;100297.47;5093716;28;20059;-63
2022/08/13 10:48:55;;;;;;;3.75;3.45;;;;;;;49.52;7.75;100297.16;5085581;28;20053;-63
2022/08/13 10:51:25;;;;;;;4.60;4.30;;;;;;;48.95;7.97;100289.50;5073295;28;20056;-63
2022/08/13 10:53:58;;;;;;;3.13;2.92;;;;;;;49.64;7.48;100287.84;5073845;28;20071;-63
2022/08/13 10:56:28;;;;;;;5.07;4.63;;;;;;;48.15;8.56;100281.63;5089779;28;20416;-63
2022/08/13 10:58:58;;;;;;;3.95;3.65;;;;;;;47.84;8.63;100288.78;5087859;28;20378;-62
2022/08/13 11:01:26;;;;;;;2.78;2.58;;;;;;;48.05;9.43;100291.66;5072788;28;20520;-62
2022/08/13 11:04:01;;;;;;;3.63;3.42;;;;;;;47.91;8.84;100288.06;5072763;28;20048;-62
2022/08/13 11:06:36;;;;;;;3.05;2.75;;;;;;;48.02;8.88;100289.88;5072810;28;20064;-62
2022/08/13 11:09:06;;;;;;;3.22;2.95;;;;;;;48.74;8.41;100289.72;5081131;28;20055;-61
2022/08/13 11:11:35;;;;;;;3.40;2.75;;;;;;;49.09;8.36;100281.22;5092402;28;20044;-61
2022/08/13 11:14:15;;;;;;;4.97;4.57;;;;;;;49.49;7.96;100274.66;5089438;28;20076;-62
2022/08/13 11:16:58;;;;;;;4.15;3.85;;;;;;;48.57;8.63;100271.72;5067154;28;20496;-62
2022/08/13 11:19:28;;;;;;;3.53;3.28;;;;;;;49.47;8.11;100274.47;5083820;28;20484;-60
2022/08/13 11:21:57;;;;;;;2.65;2.25;;;;;;;50.63;7.08;100268.03;5072478;28;20051;-60
2022/08/13 11:24:24;;;;;;;2.88;2.67;;;;;;;49.36;8.21;100277.88;5072663;28;20484;-60
2022/08/13 11:26:52;;;;;;;3.30;2.95;;;;;;;48.31;8.60;100273.63;5071963;28;20068;-60
2022/08/13 11:29:19;;;;;;;3.33;3.08;;;;;;;48.30;8.22;100269.13;5071451;28;20465;-60
2022/08/13 11:31:46;;;;;;;3.60;3.30;;;;;;;49.35;8.45;100267.41;5086700;28;20385;-60
2022/08/13 11:34:14;;;;;;;2.92;2.72;;;;;;;50.41;7.36;100270.56;5071472;28;20040;-60
2022/08/13 11:36:41;;;;;;;3.50;3.30;;;;;;;51.17;7.19;100266.19;5069581;28;20067;-60
2022/08/13 11:39:11;;;;;;;2.92;2.72;;;;;;;49.72;7.76;100265.75;5064172;28;20071;-60
2022/08/13 11:41:38;;;;;;;4.65;4.25;;;;;;;47.80;8.54;100271.47;5068879;28;20519;-60
2022/08/13 11:44:05;;;;;;;3.75;3.47;;;;;;;48.15;8.48;100260.19;5065750;28;20049;-60
2022/08/13 11:46:33;;;;;;;2.75;2.53;;;;;;;48.59;8.65;100254.16;5066035;28;20048;-60
2022/08/13 11:49:00;;;;;;;3.03;2.83;;;;;;;48.54;8.35;100246.28;5065348;28;20053;-60
2022/08/13 11:51:28;;;;;;;2.22;2.03;;;;;;;48.70;8.01;100242.00;5072555;28;20059;-62
2022/08/13 11:53:55;;;;;;;2.25;2.05;;;;;;;48.95;8.19;100238.41;5067125;28;20045;-62
2022/08/13 11:56:24;;;;;;;3.30;3.10;;;;;;;47.73;9.24;100236.78;5076354;28;20393;-62